createdAt,value
2022-08-05T00:01:36.050Z,6.77
2022-08-05T00:04:16.494Z,6.23
2022-08-05T00:06:44.844Z,8.20
2022-08-05T00:09:19.523Z,11.90
2022-08-05T00:11:49.597Z,5.30
2022-08-05T00:14:27.871Z,6.33
2022-08-05T00:16:57.398Z,5.87
2022-08-05T00:19:33.761Z,7.03
2022-08-05T00:22:11.252Z,5.73
2022-08-05T00:24:42.327Z,6.70
2022-08-05T00:27:16.538Z,9.93
2022-08-05T00:29:45.157Z,7.47
2022-08-05T00:32:15.139Z,7.97
2022-08-05T00:35:03.424Z,6.23
2022-08-05T00:37:35.747Z,7.20
2022-08-05T00:40:27.977Z,10.83
2022-08-05T00:42:57.942Z,4.57
2022-08-05T00:45:37.918Z,9.20
2022-08-05T00:48:07.873Z,13.37
2022-08-05T00:50:36.284Z,8.10
2022-08-05T00:53:09.903Z,6.23
2022-08-05T00:55:54.385Z,7.20
2022-08-05T00:58:27.679Z,7.50
2022-08-05T01:00:56.226Z,6.83
2022-08-05T01:03:31.069Z,8.47
2022-08-05T01:06:02.656Z,6.80
2022-08-05T01:08:43.378Z,8.00
2022-08-05T01:11:22.237Z,6.03
2022-08-05T01:13:59.606Z,6.73
2022-08-05T01:16:32.225Z,7.63
2022-08-05T01:19:02.481Z,6.50
2022-08-05T01:21:50.682Z,9.73
2022-08-05T01:24:30.243Z,8.20
2022-08-05T01:27:17.831Z,8.87
2022-08-05T01:29:51.661Z,7.90
2022-08-05T01:32:22.220Z,8.93
2022-08-05T01:34:52.542Z,11.03
2022-08-05T01:37:25.533Z,7.00
2022-08-05T01:39:59.191Z,10.90
2022-08-05T01:42:28.272Z,11.53
2022-08-05T01:44:59.152Z,11.90
2022-08-05T01:47:39.700Z,12.80
2022-08-05T01:50:15.465Z,13.53
2022-08-05T01:52:49.865Z,15.10
2022-08-05T01:55:19.413Z,14.07
2022-08-05T01:58:29.620Z,15.40
2022-08-05T02:00:39.675Z,16.53
2022-08-05T02:03:24.020Z,12.67
2022-08-05T02:05:59.860Z,13.67
2022-08-05T02:08:31.237Z,11.00
2022-08-05T02:11:01.600Z,11.23
2022-08-05T02:13:36.433Z,12.30
2022-08-05T02:16:22.513Z,12.40
2022-08-05T02:18:52.108Z,9.43
2022-08-05T02:21:23.575Z,9.33
2022-08-05T02:23:56.713Z,11.57
2022-08-05T02:26:26.542Z,9.17
2022-08-05T02:28:56.508Z,8.20
2022-08-05T02:31:34.591Z,8.43
2022-08-05T02:34:05.864Z,8.20
2022-08-05T02:36:38.201Z,8.23
2022-08-05T02:39:08.804Z,8.80
2022-08-05T02:41:43.140Z,9.10
2022-08-05T02:44:27.436Z,8.37
2022-08-05T02:47:00.122Z,10.17
2022-08-05T02:49:36.179Z,8.97
2022-08-05T02:52:09.152Z,10.87
2022-08-05T02:54:41.253Z,8.80
2022-08-05T02:58:10.664Z,8.10
2022-08-05T03:00:00.414Z,9.23
2022-08-05T03:02:33.764Z,8.80
2022-08-05T03:05:02.553Z,10.93
2022-08-05T03:07:59.198Z,10.83
2022-08-05T03:10:24.433Z,11.13
2022-08-05T03:12:54.005Z,11.00
2022-08-05T03:15:23.804Z,11.63
2022-08-05T03:17:55.463Z,10.63
2022-08-05T03:20:24.336Z,10.63
2022-08-05T03:22:53.079Z,10.33
2022-08-05T03:25:33.617Z,9.23
2022-08-05T03:28:14.226Z,10.50
2022-08-05T03:30:42.674Z,10.83
2022-08-05T03:33:12.492Z,10.83
2022-08-05T03:35:41.836Z,10.17
2022-08-05T03:38:12.268Z,11.97
2022-08-05T03:40:45.254Z,9.93
2022-08-05T03:44:08.074Z,11.33
2022-08-05T03:46:04.585Z,12.43
2022-08-05T03:48:35.366Z,11.57
2022-08-05T03:52:34.705Z,12.33
2022-08-05T03:55:49.774Z,11.73
2022-08-05T03:56:46.440Z,11.73
2022-08-05T03:59:16.619Z,12.80
2022-08-05T04:01:52.285Z,12.83
2022-08-05T04:04:22.406Z,13.80
2022-08-05T04:06:55.144Z,14.93
2022-08-05T04:09:25.912Z,13.77
2022-08-05T04:11:56.657Z,14.63
2022-08-05T04:14:30.392Z,14.70
2022-08-05T04:16:59.605Z,15.70
2022-08-05T04:19:29.506Z,16.50
2022-08-05T04:22:08.281Z,18.70
2022-08-05T04:24:44.173Z,18.70
2022-08-05T04:27:12.943Z,20.00
2022-08-05T04:29:41.773Z,21.17
2022-08-05T04:32:10.826Z,23.57
2022-08-05T04:34:43.258Z,21.47
2022-08-05T04:37:12.800Z,20.80
2022-08-05T04:39:41.216Z,23.13
2022-08-05T04:42:10.105Z,22.53
2022-08-05T04:44:39.271Z,24.97
2022-08-05T04:47:09.913Z,24.50
2022-08-05T04:50:01.343Z,22.27
2022-08-05T04:52:29.009Z,22.50
2022-08-05T04:54:57.976Z,25.23
2022-08-05T04:57:37.224Z,27.73
2022-08-05T05:00:06.213Z,25.10
2022-08-05T05:02:41.864Z,25.70
2022-08-05T05:05:17.054Z,25.57
2022-08-05T05:08:01.689Z,27.80
2022-08-05T05:10:30.410Z,28.43
2022-08-05T05:12:58.761Z,34.80
2022-08-05T05:15:56.494Z,30.67
2022-08-05T05:18:27.992Z,30.07
2022-08-05T05:21:03.946Z,30.23
2022-08-05T05:23:39.007Z,33.30
2022-08-05T05:26:28.335Z,36.43
2022-08-05T05:29:02.128Z,33.80
2022-08-05T05:34:02.617Z,38.47
2022-08-05T05:36:32.698Z,34.07
2022-08-05T05:39:05.630Z,34.10
2022-08-05T05:41:40.849Z,36.27
2022-08-05T05:44:27.008Z,36.23
2022-08-05T05:47:03.996Z,40.87
2022-08-05T05:49:33.253Z,43.30
2022-08-05T05:52:06.061Z,43.73
2022-08-05T05:54:50.300Z,46.77
2022-08-05T05:57:19.766Z,45.17
2022-08-05T05:59:49.064Z,45.10
2022-08-05T06:02:32.632Z,42.47
2022-08-05T06:05:10.575Z,46.83
2022-08-05T06:07:57.506Z,49.00
2022-08-05T06:10:36.780Z,45.67
2022-08-05T06:13:06.328Z,43.03
2022-08-05T06:16:28.193Z,47.57
2022-08-05T06:18:31.159Z,45.97
2022-08-05T06:21:00.336Z,45.97
2022-08-05T06:23:43.532Z,42.27
2022-08-05T06:26:21.691Z,49.87
2022-08-05T06:28:53.239Z,49.30
2022-08-05T06:31:21.934Z,48.07
2022-08-05T06:34:06.985Z,44.43
2022-08-05T06:36:57.348Z,47.33
2022-08-05T06:39:27.231Z,42.23
2022-08-05T06:41:57.314Z,41.77
2022-08-05T06:44:25.985Z,45.07
2022-08-05T06:46:54.558Z,44.17
2022-08-05T06:50:01.543Z,37.00
2022-08-05T06:52:37.135Z,34.33
2022-08-05T06:55:00.648Z,31.57
2022-08-05T06:58:02.901Z,31.60
2022-08-05T07:00:22.453Z,32.60
2022-08-05T07:02:54.336Z,29.20
2022-08-05T07:05:37.056Z,27.50
2022-08-05T07:08:06.463Z,26.63
2022-08-05T07:10:52.442Z,27.60
2022-08-05T07:13:57.596Z,28.00
2022-08-05T07:18:08.750Z,27.10
2022-08-05T07:22:27.626Z,27.37
2022-08-05T07:24:57.594Z,23.27
2022-08-05T07:27:27.630Z,24.10
2022-08-05T07:30:27.961Z,20.30
2022-08-05T07:32:58.809Z,17.93
2022-08-05T07:36:03.389Z,17.53
2022-08-05T07:38:33.040Z,16.03
2022-08-05T07:42:07.173Z,14.53
2022-08-05T07:43:52.530Z,13.50
2022-08-05T07:46:25.272Z,13.20
2022-08-05T07:49:02.459Z,12.07
2022-08-05T07:51:37.308Z,9.57
2022-08-05T07:54:10.127Z,10.97
2022-08-05T07:57:01.414Z,10.40
2022-08-05T07:59:38.094Z,9.50
2022-08-05T08:02:15.899Z,8.43
2022-08-05T08:04:46.146Z,9.83
2022-08-05T08:07:15.252Z,8.23
2022-08-05T08:09:43.686Z,8.97
2022-08-05T08:12:35.286Z,11.43
2022-08-05T08:15:03.561Z,7.23
2022-08-05T08:17:33.000Z,7.33
2022-08-05T08:20:22.957Z,8.87
2022-08-05T08:22:55.604Z,7.93
2022-08-05T08:25:26.565Z,7.23
2022-08-05T08:28:04.279Z,8.27
2022-08-05T08:30:47.302Z,8.60
2022-08-05T08:33:16.632Z,6.73
2022-08-05T08:35:52.691Z,8.47
2022-08-05T08:38:35.512Z,7.23
2022-08-05T08:41:06.398Z,10.37
2022-08-05T08:45:19.668Z,6.23
2022-08-05T08:46:26.019Z,7.80
2022-08-05T08:49:06.368Z,10.57
2022-08-05T08:52:06.135Z,10.50
2022-08-05T08:54:36.284Z,8.17
2022-08-05T08:57:11.607Z,7.27
2022-08-05T08:59:47.093Z,7.53
2022-08-05T09:02:20.404Z,7.43
2022-08-05T09:05:16.102Z,8.30
2022-08-05T09:07:39.899Z,10.57
2022-08-05T09:10:27.883Z,6.67
2022-08-05T09:12:58.938Z,6.60
2022-08-05T09:15:36.917Z,6.47
2022-08-05T09:18:07.603Z,8.50
2022-08-05T09:20:38.053Z,11.43
2022-08-05T09:23:18.553Z,10.07
2022-08-05T09:26:02.980Z,8.27
2022-08-05T09:28:34.066Z,9.50
2022-08-05T09:31:22.151Z,8.20
2022-08-05T09:33:56.680Z,12.90
2022-08-05T09:36:27.711Z,9.70
2022-08-05T09:39:03.066Z,7.23
2022-08-05T09:41:32.899Z,6.60
2022-08-05T09:44:06.762Z,9.70
2022-08-05T09:46:35.814Z,8.60
2022-08-05T09:49:19.424Z,7.60
2022-08-05T09:51:49.731Z,6.23
2022-08-05T09:54:21.433Z,7.07
2022-08-05T09:57:01.474Z,8.40
2022-08-05T09:59:36.902Z,7.27
2022-08-05T10:02:05.937Z,7.23
2022-08-05T10:04:40.868Z,11.20
2022-08-05T10:07:20.332Z,9.47
2022-08-05T10:10:13.868Z,7.03
2022-08-05T10:12:49.827Z,7.97
2022-08-05T10:15:22.668Z,7.53
2022-08-05T10:18:10.771Z,6.83
2022-08-05T10:20:41.629Z,7.90
2022-08-05T10:23:34.091Z,7.53
2022-08-05T10:26:01.159Z,7.00
2022-08-05T10:28:30.502Z,7.93
2022-08-05T10:32:54.586Z,10.80
2022-08-05T10:33:52.308Z,9.77
2022-08-05T10:36:26.288Z,8.53
2022-08-05T10:38:58.332Z,9.17
2022-08-05T10:41:46.874Z,7.93
2022-08-05T10:44:18.999Z,9.27
2022-08-05T10:46:50.660Z,8.00
2022-08-05T10:49:26.930Z,6.33
2022-08-05T10:52:05.265Z,8.43
2022-08-05T10:54:56.786Z,6.30
2022-08-05T10:57:32.245Z,7.27
2022-08-05T11:00:18.683Z,7.57
2022-08-05T11:03:25.532Z,10.27
2022-08-05T11:06:14.610Z,7.67
2022-08-05T11:08:59.610Z,7.50
2022-08-05T11:11:44.821Z,8.47
2022-08-05T11:14:49.428Z,8.43
2022-08-05T11:17:59.689Z,7.47
2022-08-05T11:20:41.708Z,10.03
2022-08-05T11:23:49.871Z,8.63
2022-08-05T11:26:28.189Z,7.93
2022-08-05T11:29:13.435Z,6.73
2022-08-05T11:31:57.406Z,5.50
2022-08-05T11:34:39.333Z,5.63
2022-08-05T11:38:29.466Z,11.90
2022-08-05T11:40:02.832Z,8.97
2022-08-05T11:42:40.250Z,8.27
2022-08-05T11:45:22.955Z,7.93
2022-08-05T11:47:59.614Z,9.27
2022-08-05T11:50:29.252Z,6.53
2022-08-05T11:52:58.353Z,7.97
2022-08-05T11:55:32.055Z,10.77
2022-08-05T11:58:10.062Z,8.17
2022-08-05T12:00:44.159Z,10.10
2022-08-05T12:03:29.159Z,8.97
2022-08-05T12:06:00.808Z,7.73
2022-08-05T12:08:31.519Z,8.97
2022-08-05T12:11:05.454Z,8.30
2022-08-05T12:13:49.523Z,6.47
2022-08-05T12:16:26.934Z,9.93
2022-08-05T12:18:55.828Z,7.17
2022-08-05T12:21:26.849Z,4.50
2022-08-05T12:24:04.840Z,3.60
2022-08-05T12:26:34.039Z,5.70
2022-08-05T12:29:03.104Z,8.67
2022-08-05T12:31:46.305Z,6.40
2022-08-05T12:34:21.569Z,8.17
2022-08-05T12:36:52.509Z,7.93
2022-08-05T12:39:21.411Z,9.67
2022-08-05T12:41:49.707Z,7.80
2022-08-05T12:44:33.477Z,6.47
2022-08-05T12:47:03.950Z,5.00
2022-08-05T12:50:02.355Z,7.17
2022-08-05T12:52:42.343Z,5.00
2022-08-05T12:55:22.258Z,5.17
2022-08-05T12:58:48.494Z,7.03
2022-08-05T13:02:02.358Z,4.73
2022-08-05T13:03:33.547Z,6.43
2022-08-05T13:06:01.986Z,4.43
2022-08-05T13:08:32.307Z,6.47
2022-08-05T13:11:01.857Z,5.60
2022-08-05T13:14:05.297Z,5.80
2022-08-05T13:16:19.445Z,4.77
2022-08-05T13:18:55.235Z,6.33
2022-08-05T13:21:28.247Z,3.57
2022-08-05T13:24:08.789Z,6.33
2022-08-05T13:26:37.381Z,4.63
2022-08-05T13:29:05.763Z,3.53
2022-08-05T13:32:03.801Z,3.97
2022-08-05T13:34:26.179Z,5.73
2022-08-05T13:36:54.908Z,4.63
2022-08-05T13:40:12.932Z,4.83
2022-08-05T13:42:15.130Z,4.83
2022-08-05T13:44:45.758Z,4.37
2022-08-05T13:47:35.678Z,5.73
2022-08-05T13:50:09.561Z,7.70
2022-08-05T13:52:41.244Z,5.47
2022-08-05T13:55:09.990Z,11.60
2022-08-05T13:57:50.793Z,3.70
2022-08-05T14:00:26.756Z,5.53
2022-08-05T14:02:56.317Z,4.80
2022-08-05T14:05:47.980Z,10.30
2022-08-05T14:08:20.707Z,5.37
2022-08-05T14:10:59.720Z,5.83
2022-08-05T14:13:32.215Z,6.47
2022-08-05T14:16:05.017Z,5.33
2022-08-05T14:18:38.103Z,5.30
2022-08-05T14:22:09.688Z,4.83
2022-08-05T14:23:56.095Z,6.77
2022-08-05T14:26:35.535Z,5.17
2022-08-05T14:29:16.273Z,3.20
2022-08-05T14:32:02.979Z,4.53
2022-08-05T14:34:35.336Z,4.87
2022-08-05T14:37:05.628Z,3.33
2022-08-05T14:39:49.546Z,5.63
2022-08-05T14:42:29.489Z,2.67
2022-08-05T14:44:57.853Z,3.50
2022-08-05T14:48:03.417Z,7.13
2022-08-05T14:50:19.064Z,2.83
2022-08-05T14:52:57.567Z,3.90
2022-08-05T14:55:38.415Z,7.10
2022-08-05T14:58:11.002Z,3.77
2022-08-05T15:00:58.459Z,1.93
2022-08-05T15:03:27.311Z,4.97
2022-08-05T15:06:13.634Z,6.70
2022-08-05T15:09:01.310Z,4.00
2022-08-05T15:11:52.580Z,5.57
2022-08-05T15:14:35.680Z,3.97
2022-08-05T15:17:09.836Z,7.27
2022-08-05T15:19:57.237Z,6.10
2022-08-05T15:22:27.182Z,3.47
2022-08-05T15:24:59.021Z,3.47
2022-08-05T15:27:32.263Z,3.87
2022-08-05T15:30:04.596Z,3.00
2022-08-05T15:32:33.165Z,3.83
2022-08-05T15:35:09.830Z,3.03
2022-08-05T15:38:34.490Z,3.30
2022-08-05T15:41:01.993Z,3.63
2022-08-05T15:43:20.159Z,2.23
2022-08-05T15:45:59.760Z,3.50
2022-08-05T15:48:29.580Z,3.27
2022-08-05T15:50:58.186Z,2.40
2022-08-05T15:53:38.415Z,2.53
2022-08-05T15:56:21.399Z,3.20
2022-08-05T15:58:50.037Z,3.63
2022-08-05T16:01:19.069Z,2.50
2022-08-05T16:03:50.478Z,4.10
2022-08-05T16:06:19.890Z,3.00
2022-08-05T16:08:51.058Z,2.13
2022-08-05T16:11:43.020Z,2.30
2022-08-05T16:14:09.299Z,1.80
2022-08-05T16:16:37.693Z,3.87
2022-08-05T16:19:06.520Z,2.00
2022-08-05T16:21:58.525Z,3.13
2022-08-05T16:24:41.191Z,4.60
2022-08-05T16:27:16.419Z,3.93
2022-08-05T16:29:50.361Z,2.40
2022-08-05T16:32:28.328Z,2.77
2022-08-05T16:34:58.700Z,2.53
2022-08-05T16:38:02.323Z,2.57
2022-08-05T16:40:26.651Z,3.17
2022-08-05T16:42:58.633Z,4.80
2022-08-05T16:46:07.730Z,4.13
2022-08-05T16:48:25.766Z,2.80
2022-08-05T16:50:54.569Z,1.47
2022-08-05T16:53:32.512Z,2.50
2022-08-05T16:56:11.922Z,4.03
2022-08-05T16:58:42.099Z,2.20
2022-08-05T17:01:10.762Z,2.50
2022-08-05T17:03:39.123Z,3.87
2022-08-05T17:06:07.558Z,1.70
2022-08-05T17:08:52.676Z,6.67
2022-08-05T17:11:23.968Z,4.20
2022-08-05T17:14:05.167Z,2.60
2022-08-05T17:16:36.615Z,6.17
2022-08-05T17:19:07.836Z,2.30
2022-08-05T17:21:39.783Z,2.90
2022-08-05T17:24:28.197Z,4.17
2022-08-05T17:26:57.663Z,2.90
2022-08-05T17:29:39.804Z,2.10
2022-08-05T17:32:11.434Z,1.50
2022-08-05T17:34:44.742Z,1.03
2022-08-05T17:37:36.123Z,2.80
2022-08-05T17:40:04.871Z,3.07
2022-08-05T17:42:41.686Z,2.33
2022-08-05T17:45:21.195Z,1.90
2022-08-05T17:47:54.521Z,1.73
2022-08-05T17:50:28.204Z,1.90
2022-08-05T17:52:58.763Z,1.87
2022-08-05T17:55:34.527Z,2.70
2022-08-05T17:58:09.385Z,2.40
2022-08-05T18:00:44.667Z,1.10
2022-08-05T18:03:39.351Z,1.40
2022-08-05T18:06:11.346Z,1.93
2022-08-05T18:08:44.539Z,2.37
2022-08-05T18:11:24.579Z,2.97
2022-08-05T18:14:00.908Z,2.40
2022-08-05T18:16:33.361Z,4.10
2022-08-05T18:19:01.650Z,3.80
2022-08-05T18:22:06.960Z,4.13
2022-08-05T18:24:18.274Z,3.73
2022-08-05T18:26:49.211Z,4.23
2022-08-05T18:29:17.488Z,2.87
2022-08-05T18:32:13.071Z,3.33
2022-08-05T18:34:42.809Z,2.60
2022-08-05T18:37:12.587Z,2.63
2022-08-05T18:40:30.922Z,1.93
2022-08-05T18:42:29.976Z,3.13
2022-08-05T18:44:58.259Z,3.17
2022-08-05T18:47:31.117Z,1.27
2022-08-05T18:50:19.833Z,3.03
2022-08-05T18:53:16.766Z,2.97
2022-08-05T18:55:50.530Z,6.20
2022-08-05T18:58:27.359Z,2.13
2022-08-05T19:00:57.342Z,1.27
2022-08-05T19:03:55.454Z,0.97
2022-08-05T19:06:21.551Z,1.50
2022-08-05T19:08:50.514Z,1.07
2022-08-05T19:11:21.909Z,1.27
2022-08-05T19:14:01.232Z,2.63
2022-08-05T19:16:47.113Z,3.33
2022-08-05T19:19:20.934Z,4.30
2022-08-05T19:21:51.471Z,1.77
2022-08-05T19:24:34.497Z,3.57
2022-08-05T19:27:04.186Z,0.90
2022-08-05T19:29:36.511Z,3.17
2022-08-05T19:32:08.479Z,1.87
2022-08-05T19:34:38.882Z,6.30
2022-08-05T19:37:07.840Z,3.13
2022-08-05T19:39:45.714Z,2.07
2022-08-05T19:42:19.255Z,4.57
2022-08-05T19:45:05.681Z,1.97
2022-08-05T19:47:34.084Z,2.60
2022-08-05T19:50:03.860Z,2.93
2022-08-05T19:52:34.474Z,3.30
2022-08-05T19:55:07.081Z,2.60
2022-08-05T19:58:04.147Z,1.40
2022-08-05T20:00:41.536Z,3.13
2022-08-05T20:03:10.911Z,3.43
2022-08-05T20:05:50.352Z,2.00
2022-08-05T20:08:20.019Z,2.10
2022-08-05T20:10:49.668Z,2.10
2022-08-05T20:13:30.042Z,4.00
2022-08-05T20:16:09.957Z,1.93
2022-08-05T20:18:38.905Z,1.40
2022-08-05T20:21:08.959Z,3.83
2022-08-05T20:23:39.678Z,3.63
2022-08-05T20:26:19.349Z,1.67
2022-08-05T20:28:48.445Z,4.63
2022-08-05T20:31:17.109Z,2.87
2022-08-05T20:33:45.714Z,2.90
2022-08-05T20:36:19.160Z,1.97
2022-08-05T20:38:54.654Z,3.50
2022-08-05T20:41:43.174Z,3.23
2022-08-05T20:44:19.223Z,3.00
2022-08-05T20:46:57.912Z,3.00
2022-08-05T20:49:26.485Z,1.70
2022-08-05T20:51:57.246Z,1.80
2022-08-05T20:54:58.975Z,1.60
2022-08-05T20:57:24.768Z,1.63
2022-08-05T21:00:21.199Z,2.97
2022-08-05T21:02:56.047Z,4.10
2022-08-05T21:05:25.289Z,3.43
2022-08-05T21:08:02.905Z,2.13
2022-08-05T21:10:32.978Z,5.00
2022-08-05T21:13:11.109Z,1.60
2022-08-05T21:15:44.530Z,7.27
2022-08-05T21:18:19.660Z,2.63
2022-08-05T21:20:52.916Z,1.50
2022-08-05T21:23:22.563Z,2.90
2022-08-05T21:25:50.784Z,7.87
2022-08-05T21:28:23.980Z,3.43
2022-08-05T21:30:58.887Z,3.80
2022-08-05T21:33:36.822Z,2.70
2022-08-05T21:36:08.297Z,3.23
2022-08-05T21:38:40.487Z,3.23
2022-08-05T21:41:09.538Z,3.07
2022-08-05T21:43:41.663Z,2.67
2022-08-05T21:46:11.795Z,2.47
2022-08-05T21:48:40.656Z,3.53
2022-08-05T21:52:16.291Z,3.57
2022-08-05T21:53:59.509Z,1.97
2022-08-05T21:56:32.311Z,3.43
2022-08-05T21:59:07.713Z,3.77
2022-08-05T22:01:36.488Z,5.07
2022-08-05T22:04:05.160Z,3.60
2022-08-05T22:06:35.088Z,4.63
2022-08-05T22:09:13.818Z,3.53
2022-08-05T22:11:46.890Z,2.17
2022-08-05T22:14:33.579Z,6.43
2022-08-05T22:17:06.815Z,4.73
2022-08-05T22:20:01.592Z,3.33
2022-08-05T22:22:28.280Z,6.07
2022-08-05T22:25:27.724Z,4.50
2022-08-05T22:28:11.757Z,3.17
2022-08-05T22:30:55.359Z,4.20
2022-08-05T22:33:56.543Z,5.77
2022-08-05T22:36:14.648Z,3.57
2022-08-05T22:38:43.398Z,5.27
2022-08-05T22:42:05.727Z,3.70
2022-08-05T22:44:05.804Z,3.43
2022-08-05T22:46:34.076Z,3.53
2022-08-05T22:49:12.121Z,1.50
2022-08-05T22:52:04.643Z,3.27
2022-08-05T22:54:36.078Z,2.47
2022-08-05T22:57:05.924Z,3.87
2022-08-05T22:59:46.483Z,2.93
2022-08-05T23:02:18.424Z,4.13
2022-08-05T23:04:57.302Z,5.63
2022-08-05T23:07:25.528Z,5.03
2022-08-05T23:10:01.617Z,3.97
2022-08-05T23:12:32.576Z,3.90
2022-08-05T23:15:03.396Z,5.60
2022-08-05T23:17:34.492Z,3.00
2022-08-05T23:20:10.404Z,2.37
2022-08-05T23:22:47.197Z,2.57
2022-08-05T23:25:17.433Z,4.60
2022-08-05T23:28:07.539Z,5.40
2022-08-05T23:30:40.034Z,4.30
2022-08-05T23:33:21.928Z,3.47
2022-08-05T23:35:55.078Z,3.30
2022-08-05T23:38:25.867Z,7.63
2022-08-05T23:40:54.221Z,4.47
2022-08-05T23:43:37.292Z,4.23
2022-08-05T23:46:20.130Z,3.60
2022-08-05T23:49:00.346Z,6.20
2022-08-05T23:51:53.486Z,3.07
2022-08-05T23:54:25.149Z,4.60
2022-08-05T23:56:54.959Z,6.63
2022-08-05T23:59:27.584Z,3.53
